sensor_id;sensor_type;location;lat;lon;timestamp;pressure;altitude;pressure_sealevel;temperature;humidity
43430;BME280;29028;43.234;27.896;2022-09-09T04:01:48;100337.97;;;21.38;79.12
43430;BME280;29028;43.234;27.896;2022-09-09T04:02:11;100334.69;;;21.41;79.07
43430;BME280;29028;43.234;27.896;2022-09-09T04:02:31;100334.38;;;21.38;78.88
43430;BME280;29028;43.234;27.896;2022-09-09T04:02:52;100328.28;;;21.31;79.06
43430;BME280;29028;43.234;27.896;2022-09-09T04:03:17;100330.75;;;21.32;79.35
43430;BME280;29028;43.234;27.896;2022-09-09T04:03:38;100334.78;;;21.25;79.80
43430;BME280;29028;43.234;27.896;2022-09-09T04:04:00;100326.63;;;21.30;79.80
43430;BME280;29028;43.234;27.896;2022-09-09T04:04:22;100327.81;;;21.39;79.63
43430;BME280;29028;43.234;27.896;2022-09-09T04:04:43;100328.34;;;21.36;79.85
43430;BME280;29028;43.234;27.896;2022-09-09T04:05:05;100329.41;;;21.35;79.55
43430;BME280;29028;43.234;27.896;2022-09-09T04:05:27;100323.09;;;21.34;79.47
43430;BME280;29028;43.234;27.896;2022-09-09T04:05:48;100330.22;;;21.35;79.64
43430;BME280;29028;43.234;27.896;2022-09-09T04:06:10;100327.50;;;21.35;79.82
43430;BME280;29028;43.234;27.896;2022-09-09T04:06:33;100332.72;;;21.37;79.94
43430;BME280;29028;43.234;27.896;2022-09-09T04:06:54;100330.03;;;21.42;79.57
43430;BME280;29028;43.234;27.896;2022-09-09T04:07:16;100333.91;;;21.46;79.54
43430;BME280;29028;43.234;27.896;2022-09-09T04:07:37;100334.75;;;21.46;79.54
43430;BME280;29028;43.234;27.896;2022-09-09T04:07:58;100332.56;;;21.48;79.22
43430;BME280;29028;43.234;27.896;2022-09-09T04:08:19;100328.41;;;21.41;79.23
43430;BME280;29028;43.234;27.896;2022-09-09T04:08:40;100336.94;;;21.44;79.41
43430;BME280;29028;43.234;27.896;2022-09-09T04:09:03;100339.13;;;21.47;79.46
43430;BME280;29028;43.234;27.896;2022-09-09T04:09:24;100337.97;;;21.38;79.74
43430;BME280;29028;43.234;27.896;2022-09-09T04:09:45;100331.69;;;21.43;79.58
43430;BME280;29028;43.234;27.896;2022-09-09T04:10:07;100335.91;;;21.50;79.42
43430;BME280;29028;43.234;27.896;2022-09-09T04:10:29;100335.00;;;21.45;79.22
43430;BME280;29028;43.234;27.896;2022-09-09T04:10:53;100336.34;;;21.42;79.40
43430;BME280;29028;43.234;27.896;2022-09-09T04:11:15;100332.47;;;21.38;79.77
43430;BME280;29028;43.234;27.896;2022-09-09T04:11:37;100330.59;;;21.44;79.73
43430;BME280;29028;43.234;27.896;2022-09-09T04:11:58;100337.53;;;21.51;79.42
43430;BME280;29028;43.234;27.896;2022-09-09T04:12:19;100340.84;;;21.53;79.56
43430;BME280;29028;43.234;27.896;2022-09-09T04:12:40;100322.69;;;21.47;79.53
43430;BME280;29028;43.234;27.896;2022-09-09T04:13:01;100344.13;;;21.50;79.46
43430;BME280;29028;43.234;27.896;2022-09-09T04:13:23;100343.53;;;21.48;79.55
43430;BME280;29028;43.234;27.896;2022-09-09T04:13:44;100325.06;;;21.39;79.48
43430;BME280;29028;43.234;27.896;2022-09-09T04:14:05;100336.63;;;21.41;79.81
43430;BME280;29028;43.234;27.896;2022-09-09T04:14:26;100341.88;;;21.47;79.79
43430;BME280;29028;43.234;27.896;2022-09-09T04:14:49;100340.53;;;21.50;79.54
43430;BME280;29028;43.234;27.896;2022-09-09T04:15:10;100338.94;;;21.54;79.33
43430;BME280;29028;43.234;27.896;2022-09-09T04:15:31;100335.16;;;21.60;79.23
43430;BME280;29028;43.234;27.896;2022-09-09T04:15:55;100328.28;;;21.57;79.03
43430;BME280;29028;43.234;27.896;2022-09-09T04:16:17;100335.47;;;21.63;79.08
43430;BME280;29028;43.234;27.896;2022-09-09T04:16:39;100338.47;;;21.62;79.19
43430;BME280;29028;43.234;27.896;2022-09-09T04:17:02;100338.06;;;21.70;79.13
43430;BME280;29028;43.234;27.896;2022-09-09T04:17:26;100333.66;;;21.69;78.77
43430;BME280;29028;43.234;27.896;2022-09-09T04:17:48;100327.84;;;21.65;78.62
43430;BME280;29028;43.234;27.896;2022-09-09T04:18:10;100339.16;;;21.69;78.92
43430;BME280;29028;43.234;27.896;2022-09-09T04:18:33;100341.59;;;21.70;78.99
43430;BME280;29028;43.234;27.896;2022-09-09T04:18:58;100325.00;;;21.55;78.82
43430;BME280;29028;43.234;27.896;2022-09-09T04:19:20;100334.31;;;21.59;79.26
43430;BME280;29028;43.234;27.896;2022-09-09T04:19:41;100327.41;;;21.52;79.30
43430;BME280;29028;43.234;27.896;2022-09-09T04:20:03;100348.03;;;21.59;79.26
43430;BME280;29028;43.234;27.896;2022-09-09T04:20:24;100330.97;;;21.52;79.31
43430;BME280;29028;43.234;27.896;2022-09-09T04:20:47;100344.97;;;21.56;79.34
43430;BME280;29028;43.234;27.896;2022-09-09T04:21:09;100346.31;;;21.53;79.29
43430;BME280;29028;43.234;27.896;2022-09-09T04:21:31;100323.28;;;21.49;79.61
43430;BME280;29028;43.234;27.896;2022-09-09T04:21:51;100334.03;;;21.56;79.16
43430;BME280;29028;43.234;27.896;2022-09-09T04:22:14;100326.03;;;21.49;79.30
43430;BME280;29028;43.234;27.896;2022-09-09T04:22:34;100344.97;;;21.56;79.58
43430;BME280;29028;43.234;27.896;2022-09-09T04:22:58;100340.84;;;21.53;79.49
43430;BME280;29028;43.234;27.896;2022-09-09T04:23:20;100336.44;;;21.52;79.33
43430;BME280;29028;43.234;27.896;2022-09-09T04:23:41;100334.91;;;21.61;79.45
43430;BME280;29028;43.234;27.896;2022-09-09T04:24:03;100338.31;;;21.68;79.30
43430;BME280;29028;43.234;27.896;2022-09-09T04:24:24;100333.97;;;21.72;79.12
43430;BME280;29028;43.234;27.896;2022-09-09T04:24:49;100337.56;;;21.78;79.04
43430;BME280;29028;43.234;27.896;2022-09-09T04:25:10;100337.28;;;21.74;78.70
43430;BME280;29028;43.234;27.896;2022-09-09T04:25:37;100334.47;;;21.69;78.55
43430;BME280;29028;43.234;27.896;2022-09-09T04:25:59;100335.13;;;21.76;78.87
43430;BME280;29028;43.234;27.896;2022-09-09T04:26:23;100329.84;;;21.70;78.75
43430;BME280;29028;43.234;27.896;2022-09-09T04:26:44;100338.66;;;21.77;78.90
43430;BME280;29028;43.234;27.896;2022-09-09T04:27:07;100333.78;;;21.79;78.92
43430;BME280;29028;43.234;27.896;2022-09-09T04:27:28;100336.22;;;21.80;78.73
43430;BME280;29028;43.234;27.896;2022-09-09T04:27:53;100334.88;;;21.83;79.05
43430;BME280;29028;43.234;27.896;2022-09-09T04:28:15;100335.16;;;21.81;78.88
43430;BME280;29028;43.234;27.896;2022-09-09T04:28:40;100334.31;;;21.81;79.13
43430;BME280;29028;43.234;27.896;2022-09-09T04:29:00;100330.19;;;21.78;78.82
43430;BME280;29028;43.234;27.896;2022-09-09T04:29:21;100331.53;;;21.76;78.81
43430;BME280;29028;43.234;27.896;2022-09-09T04:29:47;100318.03;;;21.69;79.31
43430;BME280;29028;43.234;27.896;2022-09-09T04:30:13;100325.25;;;21.80;78.83
43430;BME280;29028;43.234;27.896;2022-09-09T04:30:34;100340.69;;;21.86;78.70
43430;BME280;29028;43.234;27.896;2022-09-09T04:30:56;100334.78;;;21.73;78.82
43430;BME280;29028;43.234;27.896;2022-09-09T04:31:19;100333.19;;;21.77;78.99
43430;BME280;29028;43.234;27.896;2022-09-09T04:31:43;100339.25;;;21.79;79.15
43430;BME280;29028;43.234;27.896;2022-09-09T04:32:16;100339.28;;;21.84;79.03
43430;BME280;29028;43.234;27.896;2022-09-09T04:32:38;100335.72;;;21.83;79.18
43430;BME280;29028;43.234;27.896;2022-09-09T04:32:59;100344.75;;;21.79;79.07
43430;BME280;29028;43.234;27.896;2022-09-09T04:33:21;100336.28;;;21.85;79.11
43430;BME280;29028;43.234;27.896;2022-09-09T04:33:42;100334.94;;;21.88;79.27
43430;BME280;29028;43.234;27.896;2022-09-09T04:34:03;100325.81;;;21.77;78.92
43430;BME280;29028;43.234;27.896;2022-09-09T04:34:25;100342.59;;;21.86;79.26
43430;BME280;29028;43.234;27.896;2022-09-09T04:34:51;100341.00;;;21.90;79.24
43430;BME280;29028;43.234;27.896;2022-09-09T04:35:19;100327.44;;;21.78;79.01
43430;BME280;29028;43.234;27.896;2022-09-09T04:35:44;100342.97;;;21.94;79.29
43430;BME280;29028;43.234;27.896;2022-09-09T04:36:06;100350.41;;;21.99;78.93
43430;BME280;29028;43.234;27.896;2022-09-09T04:36:27;100345.72;;;21.94;79.12
43430;BME280;29028;43.234;27.896;2022-09-09T04:36:48;100346.22;;;21.91;79.03
43430;BME280;29028;43.234;27.896;2022-09-09T04:37:09;100343.78;;;21.95;79.27
43430;BME280;29028;43.234;27.896;2022-09-09T04:37:31;100349.63;;;22.03;79.45
43430;BME280;29028;43.234;27.896;2022-09-09T04:37:52;100338.66;;;22.03;79.41
43430;BME280;29028;43.234;27.896;2022-09-09T04:38:14;100344.75;;;22.10;79.01
43430;BME280;29028;43.234;27.896;2022-09-09T04:38:35;100351.63;;;22.13;78.83
43430;BME280;29028;43.234;27.896;2022-09-09T04:38:56;100347.25;;;22.12;78.76
43430;BME280;29028;43.234;27.896;2022-09-09T04:39:18;100345.31;;;22.12;78.79
43430;BME280;29028;43.234;27.896;2022-09-09T04:39:47;100348.66;;;22.14;78.69
43430;BME280;29028;43.234;27.896;2022-09-09T04:40:10;100344.00;;;22.20;78.93
43430;BME280;29028;43.234;27.896;2022-09-09T04:40:31;100347.06;;;22.23;78.98
43430;BME280;29028;43.234;27.896;2022-09-09T04:40:54;100349.53;;;22.25;79.01
43430;BME280;29028;43.234;27.896;2022-09-09T04:41:15;100349.00;;;22.23;78.62
43430;BME280;29028;43.234;27.896;2022-09-09T04:41:36;100343.75;;;22.21;78.88
43430;BME280;29028;43.234;27.896;2022-09-09T04:41:58;100342.63;;;22.17;78.69
43430;BME280;29028;43.234;27.896;2022-09-09T04:42:20;100347.84;;;22.19;78.77
43430;BME280;29028;43.234;27.896;2022-09-09T04:42:41;100348.19;;;22.27;78.89
43430;BME280;29028;43.234;27.896;2022-09-09T04:43:04;100330.53;;;22.18;78.62
43430;BME280;29028;43.234;27.896;2022-09-09T04:43:34;100353.88;;;22.21;78.20
43430;BME280;29028;43.234;27.896;2022-09-09T04:43:58;100336.00;;;22.13;78.33
43430;BME280;29028;43.234;27.896;2022-09-09T04:44:22;100345.72;;;22.26;78.30
43430;BME280;29028;43.234;27.896;2022-09-09T04:44:42;100349.19;;;22.16;78.34
43430;BME280;29028;43.234;27.896;2022-09-09T04:45:05;100345.09;;;22.19;78.70
43430;BME280;29028;43.234;27.896;2022-09-09T04:45:27;100348.28;;;22.06;78.47
43430;BME280;29028;43.234;27.896;2022-09-09T04:45:49;100341.72;;;22.07;78.79
43430;BME280;29028;43.234;27.896;2022-09-09T04:46:11;100335.75;;;22.15;78.89
43430;BME280;29028;43.234;27.896;2022-09-09T04:46:37;100344.84;;;22.20;79.06
43430;BME280;29028;43.234;27.896;2022-09-09T04:46:59;100338.72;;;22.13;78.63
43430;BME280;29028;43.234;27.896;2022-09-09T04:47:21;100328.31;;;22.10;78.72
43430;BME280;29028;43.234;27.896;2022-09-09T04:47:42;100338.56;;;22.25;79.03
43430;BME280;29028;43.234;27.896;2022-09-09T04:48:03;100333.09;;;22.25;78.59
43430;BME280;29028;43.234;27.896;2022-09-09T04:48:25;100330.59;;;22.23;78.41
43430;BME280;29028;43.234;27.896;2022-09-09T04:48:46;100341.91;;;22.32;78.54
43430;BME280;29028;43.234;27.896;2022-09-09T04:49:07;100336.72;;;22.30;78.29
43430;BME280;29028;43.234;27.896;2022-09-09T04:49:29;100337.72;;;22.24;78.38
43430;BME280;29028;43.234;27.896;2022-09-09T04:49:51;100342.91;;;22.21;78.47
43430;BME280;29028;43.234;27.896;2022-09-09T04:50:14;100339.06;;;22.22;78.74
43430;BME280;29028;43.234;27.896;2022-09-09T04:50:36;100333.88;;;22.20;78.93
43430;BME280;29028;43.234;27.896;2022-09-09T04:50:59;100344.81;;;22.15;78.65
43430;BME280;29028;43.234;27.896;2022-09-09T04:51:20;100330.59;;;22.23;79.31
43430;BME280;29028;43.234;27.896;2022-09-09T04:51:41;100328.44;;;22.25;78.94
43430;BME280;29028;43.234;27.896;2022-09-09T04:52:03;100331.19;;;22.25;79.15
43430;BME280;29028;43.234;27.896;2022-09-09T04:52:24;100327.09;;;22.28;79.86
43430;BME280;29028;43.234;27.896;2022-09-09T04:52:45;100333.72;;;22.37;80.35
43430;BME280;29028;43.234;27.896;2022-09-09T04:53:06;100333.97;;;22.30;79.71
43430;BME280;29028;43.234;27.896;2022-09-09T04:53:27;100333.41;;;22.33;80.22
43430;BME280;29028;43.234;27.896;2022-09-09T04:53:49;100331.22;;;22.35;79.95
43430;BME280;29028;43.234;27.896;2022-09-09T04:54:11;100337.34;;;22.42;80.63
43430;BME280;29028;43.234;27.896;2022-09-09T04:54:32;100332.94;;;22.41;80.21
43430;BME280;29028;43.234;27.896;2022-09-09T04:54:53;100332.66;;;22.43;80.18
43430;BME280;29028;43.234;27.896;2022-09-09T04:55:14;100333.22;;;22.40;79.75
43430;BME280;29028;43.234;27.896;2022-09-09T04:55:36;100335.13;;;22.39;79.72
43430;BME280;29028;43.234;27.896;2022-09-09T04:56:02;100330.75;;;22.43;79.97
43430;BME280;29028;43.234;27.896;2022-09-09T04:56:24;100332.94;;;22.41;79.65
43430;BME280;29028;43.234;27.896;2022-09-09T04:56:47;100338.53;;;22.51;79.68
43430;BME280;29028;43.234;27.896;2022-09-09T04:57:10;100332.56;;;22.59;79.86
43430;BME280;29028;43.234;27.896;2022-09-09T04:57:34;100335.06;;;22.66;79.75
43430;BME280;29028;43.234;27.896;2022-09-09T04:57:57;100338.16;;;22.74;79.53
43430;BME280;29028;43.234;27.896;2022-09-09T04:58:18;100339.78;;;22.75;79.36
43430;BME280;29028;43.234;27.896;2022-09-09T04:58:39;100337.00;;;22.70;78.56
43430;BME280;29028;43.234;27.896;2022-09-09T04:59:02;100338.72;;;22.81;77.69
43430;BME280;29028;43.234;27.896;2022-09-09T04:59:24;100338.72;;;22.81;78.08
43430;BME280;29028;43.234;27.896;2022-09-09T04:59:45;100330.19;;;22.78;77.72
43430;BME280;29028;43.234;27.896;2022-09-09T05:00:07;100329.06;;;22.74;78.17
43430;BME280;29028;43.234;27.896;2022-09-09T05:00:28;100334.81;;;22.72;78.04
43430;BME280;29028;43.234;27.896;2022-09-09T05:00:50;100333.72;;;22.73;78.25
43430;BME280;29028;43.234;27.896;2022-09-09T05:01:13;100335.84;;;22.61;77.40
43430;BME280;29028;43.234;27.896;2022-09-09T05:01:34;100331.47;;;22.60;78.15
43430;BME280;29028;43.234;27.896;2022-09-09T05:01:56;100318.19;;;22.47;78.14
43430;BME280;29028;43.234;27.896;2022-09-09T05:02:18;100340.78;;;22.59;78.22
43430;BME280;29028;43.234;27.896;2022-09-09T05:02:41;100341.31;;;22.56;78.47
43430;BME280;29028;43.234;27.896;2022-09-09T05:03:03;100334.53;;;22.69;78.64
43430;BME280;29028;43.234;27.896;2022-09-09T05:03:24;100337.09;;;22.80;78.86
43430;BME280;29028;43.234;27.896;2022-09-09T05:03:45;100339.91;;;22.90;77.98
43430;BME280;29028;43.234;27.896;2022-09-09T05:04:08;100322.03;;;22.88;78.31
43430;BME280;29028;43.234;27.896;2022-09-09T05:04:29;100342.94;;;22.94;77.92
43430;BME280;29028;43.234;27.896;2022-09-09T05:04:50;100331.34;;;22.87;77.54
43430;BME280;29028;43.234;27.896;2022-09-09T05:05:11;100341.16;;;22.73;75.98
43430;BME280;29028;43.234;27.896;2022-09-09T05:05:33;100337.34;;;22.79;76.81
43430;BME280;29028;43.234;27.896;2022-09-09T05:06:02;100342.59;;;22.85;77.44
43430;BME280;29028;43.234;27.896;2022-09-09T05:06:24;100340.44;;;22.92;77.82
43430;BME280;29028;43.234;27.896;2022-09-09T05:06:45;100341.88;;;23.05;77.50
43430;BME280;29028;43.234;27.896;2022-09-09T05:07:07;100350.41;;;23.08;77.21
43430;BME280;29028;43.234;27.896;2022-09-09T05:07:28;100343.91;;;23.19;76.62
43430;BME280;29028;43.234;27.896;2022-09-09T05:07:50;100349.13;;;23.21;76.31
43430;BME280;29028;43.234;27.896;2022-09-09T05:08:11;100353.78;;;23.20;76.45
43430;BME280;29028;43.234;27.896;2022-09-09T05:08:33;100348.56;;;23.19;76.24
43430;BME280;29028;43.234;27.896;2022-09-09T05:08:54;100345.72;;;23.04;75.26
43430;BME280;29028;43.234;27.896;2022-09-09T05:09:14;100350.69;;;23.12;76.36
43430;BME280;29028;43.234;27.896;2022-09-09T05:09:35;100344.69;;;23.15;76.43
43430;BME280;29028;43.234;27.896;2022-09-09T05:09:56;100333.34;;;23.01;75.99
43430;BME280;29028;43.234;27.896;2022-09-09T05:10:18;100343.28;;;23.07;76.06
43430;BME280;29028;43.234;27.896;2022-09-09T05:10:39;100336.81;;;22.87;75.22
43430;BME280;29028;43.234;27.896;2022-09-09T05:11:02;100353.28;;;22.82;75.31
43430;BME280;29028;43.234;27.896;2022-09-09T05:11:24;100346.16;;;22.86;76.11
43430;BME280;29028;43.234;27.896;2022-09-09T05:11:47;100329.41;;;22.87;77.13
43430;BME280;29028;43.234;27.896;2022-09-09T05:12:08;100342.13;;;22.98;76.46
43430;BME280;29028;43.234;27.896;2022-09-09T05:12:29;100349.00;;;23.01;76.34
43430;BME280;29028;43.234;27.896;2022-09-09T05:12:52;100346.03;;;23.07;74.86
43430;BME280;29028;43.234;27.896;2022-09-09T05:13:14;100345.75;;;23.14;74.02
43430;BME280;29028;43.234;27.896;2022-09-09T05:13:35;100351.81;;;23.11;74.04
43430;BME280;29028;43.234;27.896;2022-09-09T05:13:56;100340.22;;;23.09;74.41
43430;BME280;29028;43.234;27.896;2022-09-09T05:14:17;100348.22;;;23.10;75.19
43430;BME280;29028;43.234;27.896;2022-09-09T05:14:38;100336.69;;;23.08;75.72
43430;BME280;29028;43.234;27.896;2022-09-09T05:15:00;100342.66;;;23.00;75.63
43430;BME280;29028;43.234;27.896;2022-09-09T05:15:20;100348.41;;;22.94;76.00
43430;BME280;29028;43.234;27.896;2022-09-09T05:15:41;100333.31;;;22.96;76.64
43430;BME280;29028;43.234;27.896;2022-09-09T05:16:03;100343.72;;;22.89;76.50
43430;BME280;29028;43.234;27.896;2022-09-09T05:16:25;100344.28;;;22.91;75.64
43430;BME280;29028;43.234;27.896;2022-09-09T05:16:46;100344.53;;;22.90;74.94
43430;BME280;29028;43.234;27.896;2022-09-09T05:17:07;100352.22;;;22.88;74.61
43430;BME280;29028;43.234;27.896;2022-09-09T05:17:28;100346.19;;;22.91;75.43
43430;BME280;29028;43.234;27.896;2022-09-09T05:17:51;100343.41;;;22.86;75.82
43430;BME280;29028;43.234;27.896;2022-09-09T05:18:12;100344.81;;;22.88;75.77
43430;BME280;29028;43.234;27.896;2022-09-09T05:18:34;100341.56;;;22.96;76.11
43430;BME280;29028;43.234;27.896;2022-09-09T05:18:55;100333.56;;;22.90;75.32
43430;BME280;29028;43.234;27.896;2022-09-09T05:19:17;100342.66;;;23.00;76.17
43430;BME280;29028;43.234;27.896;2022-09-09T05:19:40;100347.88;;;22.97;75.46
43430;BME280;29028;43.234;27.896;2022-09-09T05:20:01;100342.38;;;22.97;75.01
43430;BME280;29028;43.234;27.896;2022-09-09T05:20:24;100345.38;;;22.95;74.51
43430;BME280;29028;43.234;27.896;2022-09-09T05:20:46;100345.09;;;22.92;74.48
43430;BME280;29028;43.234;27.896;2022-09-09T05:21:07;100353.00;;;22.83;75.17
43430;BME280;29028;43.234;27.896;2022-09-09T05:21:28;100340.09;;;22.79;75.91
43430;BME280;29028;43.234;27.896;2022-09-09T05:21:49;100351.38;;;22.82;76.69
43430;BME280;29028;43.234;27.896;2022-09-09T05:22:11;100348.66;;;22.87;76.21
43430;BME280;29028;43.234;27.896;2022-09-09T05:22:32;100342.88;;;22.84;76.31
43430;BME280;29028;43.234;27.896;2022-09-09T05:22:54;100348.13;;;22.90;75.51
43430;BME280;29028;43.234;27.896;2022-09-09T05:23:15;100343.19;;;22.92;75.32
43430;BME280;29028;43.234;27.896;2022-09-09T05:23:37;100345.38;;;22.95;75.63
43430;BME280;29028;43.234;27.896;2022-09-09T05:23:58;100343.47;;;22.96;75.83
43430;BME280;29028;43.234;27.896;2022-09-09T05:24:20;100336.66;;;23.03;76.66
43430;BME280;29028;43.234;27.896;2022-09-09T05:24:43;100337.16;;;23.00;77.01
43430;BME280;29028;43.234;27.896;2022-09-09T05:25:04;100338.31;;;23.04;77.47
43430;BME280;29028;43.234;27.896;2022-09-09T05:25:25;100338.31;;;23.09;77.53
43430;BME280;29028;43.234;27.896;2022-09-09T05:25:55;100342.97;;;22.99;76.89
43430;BME280;29028;43.234;27.896;2022-09-09T05:26:18;100335.56;;;23.09;76.36
43430;BME280;29028;43.234;27.896;2022-09-09T05:26:39;100342.97;;;23.04;75.93
43430;BME280;29028;43.234;27.896;2022-09-09T05:27:00;100331.13;;;22.98;75.65
43430;BME280;29028;43.234;27.896;2022-09-09T05:27:22;100336.34;;;22.95;75.88
43430;BME280;29028;43.234;27.896;2022-09-09T05:27:44;100337.16;;;22.95;75.63
43430;BME280;29028;43.234;27.896;2022-09-09T05:28:05;100342.94;;;22.94;75.73
43430;BME280;29028;43.234;27.896;2022-09-09T05:28:28;100334.13;;;22.97;75.95
43430;BME280;29028;43.234;27.896;2022-09-09T05:28:48;100339.94;;;23.05;75.10
43430;BME280;29028;43.234;27.896;2022-09-09T05:29:10;100336.41;;;23.10;75.05
43430;BME280;29028;43.234;27.896;2022-09-09T05:29:31;100331.13;;;22.98;75.70
43430;BME280;29028;43.234;27.896;2022-09-09T05:29:53;100330.81;;;22.90;75.82
43430;BME280;29028;43.234;27.896;2022-09-09T05:30:14;100339.56;;;22.87;76.08
43430;BME280;29028;43.234;27.896;2022-09-09T05:30:37;100329.41;;;22.87;76.41
43430;BME280;29028;43.234;27.896;2022-09-09T05:30:59;100334.84;;;22.77;76.77
43430;BME280;29028;43.234;27.896;2022-09-09T05:31:21;100336.22;;;22.75;76.68
43430;BME280;29028;43.234;27.896;2022-09-09T05:31:42;100338.44;;;22.78;76.94
43430;BME280;29028;43.234;27.896;2022-09-09T05:32:04;100336.53;;;22.83;76.48
43430;BME280;29028;43.234;27.896;2022-09-09T05:32:25;100329.66;;;22.81;76.27
43430;BME280;29028;43.234;27.896;2022-09-09T05:32:46;100334.06;;;22.87;77.00
43430;BME280;29028;43.234;27.896;2022-09-09T05:33:10;100335.41;;;22.74;76.68
43430;BME280;29028;43.234;27.896;2022-09-09T05:33:32;100334.56;;;22.74;77.11
43430;BME280;29028;43.234;27.896;2022-09-09T05:33:53;100331.59;;;22.80;76.65
43430;BME280;29028;43.234;27.896;2022-09-09T05:34:14;100329.94;;;22.79;76.57
43430;BME280;29028;43.234;27.896;2022-09-09T05:34:35;100335.69;;;22.78;76.75
43430;BME280;29028;43.234;27.896;2022-09-09T05:34:57;100327.38;;;22.68;77.00
43430;BME280;29028;43.234;27.896;2022-09-09T05:35:19;100321.88;;;22.63;76.88
43430;BME280;29028;43.234;27.896;2022-09-09T05:35:41;100332.09;;;22.77;76.92
43430;BME280;29028;43.234;27.896;2022-09-09T05:36:03;100330.47;;;22.76;76.65
43430;BME280;29028;43.234;27.896;2022-09-09T05:36:25;100323.72;;;22.57;77.21
43430;BME280;29028;43.234;27.896;2022-09-09T05:36:47;100325.69;;;22.57;77.76
43430;BME280;29028;43.234;27.896;2022-09-09T05:37:08;100325.97;;;22.60;78.08
43430;BME280;29028;43.234;27.896;2022-09-09T05:37:31;100327.56;;;22.56;77.78
43430;BME280;29028;43.234;27.896;2022-09-09T05:37:51;100319.06;;;22.53;78.01
43430;BME280;29028;43.234;27.896;2022-09-09T05:38:13;100330.13;;;22.68;78.32
43430;BME280;29028;43.234;27.896;2022-09-09T05:38:35;100330.47;;;22.76;78.41
43430;BME280;29028;43.234;27.896;2022-09-09T05:38:56;100328.03;;;22.85;77.21
43430;BME280;29028;43.234;27.896;2022-09-09T05:39:17;100328.91;;;22.90;77.34
43430;BME280;29028;43.234;27.896;2022-09-09T05:39:38;100329.78;;;23.01;77.74
43430;BME280;29028;43.234;27.896;2022-09-09T05:39:59;100331.72;;;23.05;76.70
43430;BME280;29028;43.234;27.896;2022-09-09T05:40:21;100322.09;;;23.08;77.20
43430;BME280;29028;43.234;27.896;2022-09-09T05:40:47;100335.09;;;23.22;77.64
43430;BME280;29028;43.234;27.896;2022-09-09T05:41:11;100334.88;;;23.29;77.28
43430;BME280;29028;43.234;27.896;2022-09-09T05:41:32;100331.63;;;23.37;77.36
43430;BME280;29028;43.234;27.896;2022-09-09T05:41:53;100335.47;;;23.46;76.06
43430;BME280;29028;43.234;27.896;2022-09-09T05:42:15;100328.63;;;23.48;74.92
43430;BME280;29028;43.234;27.896;2022-09-09T05:42:37;100320.09;;;23.45;75.01
43430;BME280;29028;43.234;27.896;2022-09-09T05:43:00;100329.16;;;23.55;75.71
43430;BME280;29028;43.234;27.896;2022-09-09T05:43:22;100327.28;;;23.61;75.96
43430;BME280;29028;43.234;27.896;2022-09-09T05:43:44;100333.06;;;23.69;76.32
43430;BME280;29028;43.234;27.896;2022-09-09T05:44:07;100323.72;;;23.75;76.33
43430;BME280;29028;43.234;27.896;2022-09-09T05:44:28;100329.50;;;23.79;75.57
43430;BME280;29028;43.234;27.896;2022-09-09T05:44:49;100325.13;;;23.83;74.82
43430;BME280;29028;43.234;27.896;2022-09-09T05:45:14;100326.81;;;23.94;75.70
43430;BME280;29028;43.234;27.896;2022-09-09T05:45:35;100321.53;;;23.87;73.54
43430;BME280;29028;43.234;27.896;2022-09-09T05:46:00;100328.41;;;23.65;73.36
43430;BME280;29028;43.234;27.896;2022-09-09T05:46:23;100320.69;;;23.67;73.32
43430;BME280;29028;43.234;27.896;2022-09-09T05:46:45;100317.94;;;23.72;74.58
43430;BME280;29028;43.234;27.896;2022-09-09T05:47:06;100323.19;;;23.73;74.92
43430;BME280;29028;43.234;27.896;2022-09-09T05:47:28;100324.00;;;23.79;75.14
43430;BME280;29028;43.234;27.896;2022-09-09T05:47:51;100319.06;;;23.81;74.13
43430;BME280;29028;43.234;27.896;2022-09-09T05:48:15;100324.59;;;23.86;74.08
43430;BME280;29028;43.234;27.896;2022-09-09T05:48:37;100322.91;;;23.85;74.31
43430;BME280;29028;43.234;27.896;2022-09-09T05:48:59;100313.84;;;23.79;74.27
43430;BME280;29028;43.234;27.896;2022-09-09T05:49:20;100322.38;;;23.88;74.35
43430;BME280;29028;43.234;27.896;2022-09-09T05:49:42;100311.38;;;23.88;74.76
43430;BME280;29028;43.234;27.896;2022-09-09T05:50:04;100319.94;;;23.96;74.47
43430;BME280;29028;43.234;27.896;2022-09-09T05:50:25;100325.19;;;24.03;74.06
43430;BME280;29028;43.234;27.896;2022-09-09T05:50:52;100329.00;;;24.02;72.56
43430;BME280;29028;43.234;27.896;2022-09-09T05:51:14;100317.72;;;24.03;73.34
43430;BME280;29028;43.234;27.896;2022-09-09T05:51:37;100326.56;;;24.05;73.41
43430;BME280;29028;43.234;27.896;2022-09-09T05:51:58;100322.72;;;24.11;73.21
43430;BME280;29028;43.234;27.896;2022-09-09T05:52:19;100319.69;;;24.08;72.41
43430;BME280;29028;43.234;27.896;2022-09-09T05:52:40;100322.69;;;24.01;72.19
43430;BME280;29028;43.234;27.896;2022-09-09T05:53:04;100314.44;;;23.96;72.32
43430;BME280;29028;43.234;27.896;2022-09-09T05:53:25;100319.09;;;23.96;72.89
43430;BME280;29028;43.234;27.896;2022-09-09T05:53:46;100329.31;;;23.95;72.78
43430;BME280;29028;43.234;27.896;2022-09-09T05:54:07;100327.66;;;23.94;72.97
43430;BME280;29028;43.234;27.896;2022-09-09T05:54:29;100323.81;;;23.95;72.77
43430;BME280;29028;43.234;27.896;2022-09-09T05:54:50;100315.00;;;23.88;72.90
43430;BME280;29028;43.234;27.896;2022-09-09T05:55:11;100320.16;;;23.80;73.19
43430;BME280;29028;43.234;27.896;2022-09-09T05:55:33;100323.47;;;23.82;74.13